sensor_id;sensor_type;location;lat;lon;timestamp;temperature;humidity
41838;DHT22;27511;52.042;5.178;2023-08-01T00:01:48;20.40;99.90
41838;DHT22;27511;52.042;5.178;2023-08-01T00:04:14;20.40;99.90
41838;DHT22;27511;52.042;5.178;2023-08-01T00:06:39;20.30;99.90
41838;DHT22;27511;52.042;5.178;2023-08-01T00:09:05;20.30;99.90
41838;DHT22;27511;52.042;5.178;2023-08-01T00:11:30;20.30;99.90
41838;DHT22;27511;52.042;5.178;2023-08-01T00:13:56;20.30;99.90
41838;DHT22;27511;52.042;5.178;2023-08-01T00:16:21;20.30;99.90
41838;DHT22;27511;52.042;5.178;2023-08-01T00:18:47;20.30;99.90
41838;DHT22;27511;52.042;5.178;2023-08-01T00:21:12;20.30;99.90
41838;DHT22;27511;52.042;5.178;2023-08-01T00:23:38;20.30;99.90
41838;DHT22;27511;52.042;5.178;2023-08-01T00:26:03;20.20;99.90
41838;DHT22;27511;52.042;5.178;2023-08-01T00:28:29;20.20;99.90
41838;DHT22;27511;52.042;5.178;2023-08-01T00:31:02;20.20;99.90
41838;DHT22;27511;52.042;5.178;2023-08-01T00:33:28;20.20;99.90
41838;DHT22;27511;52.042;5.178;2023-08-01T00:35:53;20.10;99.90
41838;DHT22;27511;52.042;5.178;2023-08-01T00:38:19;20.20;99.90
41838;DHT22;27511;52.042;5.178;2023-08-01T00:40:44;20.10;99.90
41838;DHT22;27511;52.042;5.178;2023-08-01T00:43:10;20.10;99.90
41838;DHT22;27511;52.042;5.178;2023-08-01T00:45:35;20.20;99.90
41838;DHT22;27511;52.042;5.178;2023-08-01T00:48:01;20.20;99.90
41838;DHT22;27511;52.042;5.178;2023-08-01T00:50:26;20.00;99.90
41838;DHT22;27511;52.042;5.178;2023-08-01T00:52:52;20.10;99.90
41838;DHT22;27511;52.042;5.178;2023-08-01T00:55:18;20.10;99.90
41838;DHT22;27511;52.042;5.178;2023-08-01T00:57:43;20.10;99.90
41838;DHT22;27511;52.042;5.178;2023-08-01T01:00:09;20.10;99.90
41838;DHT22;27511;52.042;5.178;2023-08-01T01:02:35;20.10;99.90
41838;DHT22;27511;52.042;5.178;2023-08-01T01:05:01;20.10;99.90
41838;DHT22;27511;52.042;5.178;2023-08-01T01:07:27;20.00;99.90
41838;DHT22;27511;52.042;5.178;2023-08-01T01:09:54;20.00;99.90
41838;DHT22;27511;52.042;5.178;2023-08-01T01:12:19;20.00;99.90
41838;DHT22;27511;52.042;5.178;2023-08-01T01:14:45;19.90;99.90
41838;DHT22;27511;52.042;5.178;2023-08-01T01:17:10;19.90;99.90
41838;DHT22;27511;52.042;5.178;2023-08-01T01:19:35;19.90;99.90
41838;DHT22;27511;52.042;5.178;2023-08-01T01:22:02;19.80;99.90
41838;DHT22;27511;52.042;5.178;2023-08-01T01:24:28;19.80;99.90
41838;DHT22;27511;52.042;5.178;2023-08-01T01:26:55;19.80;99.90
41838;DHT22;27511;52.042;5.178;2023-08-01T01:29:21;19.80;99.90
41838;DHT22;27511;52.042;5.178;2023-08-01T01:31:47;19.80;99.90
41838;DHT22;27511;52.042;5.178;2023-08-01T01:34:13;19.80;99.90
41838;DHT22;27511;52.042;5.178;2023-08-01T01:36:39;19.80;99.90
41838;DHT22;27511;52.042;5.178;2023-08-01T01:39:04;19.90;99.90
41838;DHT22;27511;52.042;5.178;2023-08-01T01:41:30;19.80;99.90
41838;DHT22;27511;52.042;5.178;2023-08-01T01:43:56;19.80;99.90
41838;DHT22;27511;52.042;5.178;2023-08-01T01:46:21;19.80;99.90
41838;DHT22;27511;52.042;5.178;2023-08-01T01:48:46;19.70;99.90
41838;DHT22;27511;52.042;5.178;2023-08-01T01:51:12;19.50;99.90
41838;DHT22;27511;52.042;5.178;2023-08-01T01:53:38;19.60;99.90
41838;DHT22;27511;52.042;5.178;2023-08-01T01:56:03;19.60;99.90
41838;DHT22;27511;52.042;5.178;2023-08-01T01:58:29;19.70;99.90
41838;DHT22;27511;52.042;5.178;2023-08-01T02:00:54;19.60;99.90
41838;DHT22;27511;52.042;5.178;2023-08-01T02:03:20;19.60;99.90
41838;DHT22;27511;52.042;5.178;2023-08-01T02:05:45;19.70;99.90
41838;DHT22;27511;52.042;5.178;2023-08-01T02:08:11;19.80;99.90
41838;DHT22;27511;52.042;5.178;2023-08-01T02:10:36;19.80;99.90
41838;DHT22;27511;52.042;5.178;2023-08-01T02:13:02;19.70;99.90
41838;DHT22;27511;52.042;5.178;2023-08-01T02:15:27;19.80;99.90
41838;DHT22;27511;52.042;5.178;2023-08-01T02:17:53;19.80;99.90
41838;DHT22;27511;52.042;5.178;2023-08-01T02:20:18;19.90;99.90
41838;DHT22;27511;52.042;5.178;2023-08-01T02:22:44;19.80;99.90
41838;DHT22;27511;52.042;5.178;2023-08-01T02:25:09;19.70;99.90
41838;DHT22;27511;52.042;5.178;2023-08-01T02:27:34;19.70;99.90
41838;DHT22;27511;52.042;5.178;2023-08-01T02:30:00;19.80;99.90
41838;DHT22;27511;52.042;5.178;2023-08-01T02:32:25;19.70;99.90
41838;DHT22;27511;52.042;5.178;2023-08-01T02:34:51;19.70;99.90
41838;DHT22;27511;52.042;5.178;2023-08-01T02:37:16;19.80;99.90
41838;DHT22;27511;52.042;5.178;2023-08-01T02:39:42;19.70;99.90
41838;DHT22;27511;52.042;5.178;2023-08-01T02:42:07;19.80;99.90
41838;DHT22;27511;52.042;5.178;2023-08-01T02:44:33;19.80;99.90
41838;DHT22;27511;52.042;5.178;2023-08-01T02:46:59;19.90;99.90
41838;DHT22;27511;52.042;5.178;2023-08-01T02:49:27;19.90;99.90
41838;DHT22;27511;52.042;5.178;2023-08-01T02:51:52;19.90;99.90
41838;DHT22;27511;52.042;5.178;2023-08-01T02:54:18;19.90;99.90
41838;DHT22;27511;52.042;5.178;2023-08-01T02:56:43;19.90;99.90
41838;DHT22;27511;52.042;5.178;2023-08-01T02:59:09;19.90;99.90
41838;DHT22;27511;52.042;5.178;2023-08-01T03:01:34;19.90;99.90
41838;DHT22;27511;52.042;5.178;2023-08-01T03:04:04;19.90;99.90
41838;DHT22;27511;52.042;5.178;2023-08-01T03:06:30;20.00;99.90
41838;DHT22;27511;52.042;5.178;2023-08-01T03:08:56;19.90;99.90
41838;DHT22;27511;52.042;5.178;2023-08-01T03:11:21;20.00;99.90
41838;DHT22;27511;52.042;5.178;2023-08-01T03:13:47;20.00;99.90
41838;DHT22;27511;52.042;5.178;2023-08-01T03:16:12;19.90;99.90
41838;DHT22;27511;52.042;5.178;2023-08-01T03:18:38;19.90;99.90
41838;DHT22;27511;52.042;5.178;2023-08-01T03:21:03;19.90;99.90
41838;DHT22;27511;52.042;5.178;2023-08-01T03:23:29;19.90;99.90
41838;DHT22;27511;52.042;5.178;2023-08-01T03:25:55;19.90;99.90
41838;DHT22;27511;52.042;5.178;2023-08-01T03:28:20;19.80;99.90
41838;DHT22;27511;52.042;5.178;2023-08-01T03:30:46;19.80;99.90
41838;DHT22;27511;52.042;5.178;2023-08-01T03:33:15;19.80;99.90
41838;DHT22;27511;52.042;5.178;2023-08-01T03:35:40;19.80;99.90
41838;DHT22;27511;52.042;5.178;2023-08-01T03:38:06;19.70;99.90
41838;DHT22;27511;52.042;5.178;2023-08-01T03:40:31;19.70;99.90
41838;DHT22;27511;52.042;5.178;2023-08-01T03:42:57;19.60;99.90
41838;DHT22;27511;52.042;5.178;2023-08-01T03:45:22;19.50;99.90
41838;DHT22;27511;52.042;5.178;2023-08-01T03:47:48;19.50;99.90
41838;DHT22;27511;52.042;5.178;2023-08-01T03:50:13;19.60;99.90
41838;DHT22;27511;52.042;5.178;2023-08-01T03:52:39;19.70;99.90
41838;DHT22;27511;52.042;5.178;2023-08-01T03:55:04;19.70;99.90
41838;DHT22;27511;52.042;5.178;2023-08-01T03:57:30;19.60;99.90
41838;DHT22;27511;52.042;5.178;2023-08-01T03:59:59;19.50;99.90
41838;DHT22;27511;52.042;5.178;2023-08-01T04:02:24;19.70;99.90
41838;DHT22;27511;52.042;5.178;2023-08-01T04:04:50;19.80;99.90
41838;DHT22;27511;52.042;5.178;2023-08-01T04:07:15;19.80;99.90
41838;DHT22;27511;52.042;5.178;2023-08-01T04:09:41;19.80;99.90
41838;DHT22;27511;52.042;5.178;2023-08-01T04:12:06;19.70;99.90
41838;DHT22;27511;52.042;5.178;2023-08-01T04:14:32;19.70;99.90
41838;DHT22;27511;52.042;5.178;2023-08-01T04:17:00;19.80;99.90
41838;DHT22;27511;52.042;5.178;2023-08-01T04:19:26;19.70;99.90
41838;DHT22;27511;52.042;5.178;2023-08-01T04:21:51;19.80;99.90
41838;DHT22;27511;52.042;5.178;2023-08-01T04:24:17;19.80;99.90
41838;DHT22;27511;52.042;5.178;2023-08-01T04:26:42;19.80;99.90
41838;DHT22;27511;52.042;5.178;2023-08-01T04:29:08;19.90;99.90
41838;DHT22;27511;52.042;5.178;2023-08-01T04:31:33;19.60;99.90
41838;DHT22;27511;52.042;5.178;2023-08-01T04:33:59;19.60;99.90
41838;DHT22;27511;52.042;5.178;2023-08-01T04:36:24;19.60;99.90
41838;DHT22;27511;52.042;5.178;2023-08-01T04:38:50;19.70;99.90
41838;DHT22;27511;52.042;5.178;2023-08-01T04:41:15;19.50;99.90
41838;DHT22;27511;52.042;5.178;2023-08-01T04:43:41;19.50;99.90
41838;DHT22;27511;52.042;5.178;2023-08-01T04:46:06;19.60;99.90
41838;DHT22;27511;52.042;5.178;2023-08-01T04:48:32;19.60;99.90
41838;DHT22;27511;52.042;5.178;2023-08-01T04:50:57;19.60;99.90
41838;DHT22;27511;52.042;5.178;2023-08-01T04:53:23;19.50;99.90
41838;DHT22;27511;52.042;5.178;2023-08-01T04:55:48;19.50;99.90
41838;DHT22;27511;52.042;5.178;2023-08-01T04:58:14;19.40;99.90
41838;DHT22;27511;52.042;5.178;2023-08-01T05:00:40;19.50;99.90
41838;DHT22;27511;52.042;5.178;2023-08-01T05:03:06;19.60;99.90
41838;DHT22;27511;52.042;5.178;2023-08-01T05:05:31;19.50;99.90
41838;DHT22;27511;52.042;5.178;2023-08-01T05:07:57;19.50;99.90
41838;DHT22;27511;52.042;5.178;2023-08-01T05:10:22;19.60;99.90
41838;DHT22;27511;52.042;5.178;2023-08-01T05:12:48;19.40;99.90
41838;DHT22;27511;52.042;5.178;2023-08-01T05:15:13;19.50;99.90
41838;DHT22;27511;52.042;5.178;2023-08-01T05:17:39;19.60;99.90
41838;DHT22;27511;52.042;5.178;2023-08-01T05:20:05;19.70;99.90
41838;DHT22;27511;52.042;5.178;2023-08-01T05:22:30;19.80;99.90
41838;DHT22;27511;52.042;5.178;2023-08-01T05:24:56;19.80;99.90
41838;DHT22;27511;52.042;5.178;2023-08-01T05:27:21;19.70;99.90
41838;DHT22;27511;52.042;5.178;2023-08-01T05:29:47;19.60;99.90
41838;DHT22;27511;52.042;5.178;2023-08-01T05:32:12;19.70;99.90
41838;DHT22;27511;52.042;5.178;2023-08-01T05:34:38;19.70;99.90
41838;DHT22;27511;52.042;5.178;2023-08-01T05:37:03;19.80;99.90
41838;DHT22;27511;52.042;5.178;2023-08-01T05:39:29;19.60;99.90
41838;DHT22;27511;52.042;5.178;2023-08-01T05:41:54;19.70;99.90
41838;DHT22;27511;52.042;5.178;2023-08-01T05:44:20;19.70;99.90
41838;DHT22;27511;52.042;5.178;2023-08-01T05:46:45;19.80;99.90
41838;DHT22;27511;52.042;5.178;2023-08-01T05:49:11;19.90;99.90
41838;DHT22;27511;52.042;5.178;2023-08-01T05:51:36;19.70;99.90
41838;DHT22;27511;52.042;5.178;2023-08-01T05:54:02;19.80;99.90
41838;DHT22;27511;52.042;5.178;2023-08-01T05:56:27;19.70;99.90
41838;DHT22;27511;52.042;5.178;2023-08-01T05:58:53;19.70;99.90
41838;DHT22;27511;52.042;5.178;2023-08-01T06:01:18;19.70;99.90
41838;DHT22;27511;52.042;5.178;2023-08-01T06:03:45;19.60;99.90
41838;DHT22;27511;52.042;5.178;2023-08-01T06:06:10;19.60;99.90
41838;DHT22;27511;52.042;5.178;2023-08-01T06:08:35;19.60;99.90
41838;DHT22;27511;52.042;5.178;2023-08-01T06:11:01;19.70;99.90
41838;DHT22;27511;52.042;5.178;2023-08-01T06:13:26;19.80;99.90
41838;DHT22;27511;52.042;5.178;2023-08-01T06:15:52;19.80;99.90
41838;DHT22;27511;52.042;5.178;2023-08-01T06:18:18;19.80;99.90
41838;DHT22;27511;52.042;5.178;2023-08-01T06:20:44;19.70;99.90
41838;DHT22;27511;52.042;5.178;2023-08-01T06:23:09;19.80;99.90
41838;DHT22;27511;52.042;5.178;2023-08-01T06:25:35;19.70;99.90
41838;DHT22;27511;52.042;5.178;2023-08-01T06:28:00;19.80;99.90
41838;DHT22;27511;52.042;5.178;2023-08-01T06:30:26;19.80;99.90
41838;DHT22;27511;52.042;5.178;2023-08-01T06:32:51;19.90;99.90
41838;DHT22;27511;52.042;5.178;2023-08-01T06:35:17;19.70;99.90
41838;DHT22;27511;52.042;5.178;2023-08-01T06:37:42;19.70;99.90
41838;DHT22;27511;52.042;5.178;2023-08-01T06:40:08;19.70;99.90
41838;DHT22;27511;52.042;5.178;2023-08-01T06:42:33;19.60;99.90
41838;DHT22;27511;52.042;5.178;2023-08-01T06:44:59;19.70;99.90
41838;DHT22;27511;52.042;5.178;2023-08-01T06:47:24;19.60;99.90
41838;DHT22;27511;52.042;5.178;2023-08-01T06:49:50;19.60;99.90
41838;DHT22;27511;52.042;5.178;2023-08-01T06:52:15;19.70;99.90
41838;DHT22;27511;52.042;5.178;2023-08-01T06:54:41;19.50;99.90
41838;DHT22;27511;52.042;5.178;2023-08-01T06:57:06;19.50;99.90
41838;DHT22;27511;52.042;5.178;2023-08-01T06:59:32;19.60;99.90
41838;DHT22;27511;52.042;5.178;2023-08-01T07:01:58;19.80;99.90
41838;DHT22;27511;52.042;5.178;2023-08-01T07:04:23;19.90;99.90
41838;DHT22;27511;52.042;5.178;2023-08-01T07:06:49;20.10;99.90
41838;DHT22;27511;52.042;5.178;2023-08-01T07:09:14;20.00;99.90
41838;DHT22;27511;52.042;5.178;2023-08-01T07:11:40;20.00;99.90
41838;DHT22;27511;52.042;5.178;2023-08-01T07:14:06;20.00;99.90
41838;DHT22;27511;52.042;5.178;2023-08-01T07:16:31;20.00;99.90
41838;DHT22;27511;52.042;5.178;2023-08-01T07:18:57;19.70;99.90
41838;DHT22;27511;52.042;5.178;2023-08-01T07:21:23;19.60;99.90
41838;DHT22;27511;52.042;5.178;2023-08-01T07:23:48;19.70;99.90
41838;DHT22;27511;52.042;5.178;2023-08-01T07:26:14;19.80;99.90
41838;DHT22;27511;52.042;5.178;2023-08-01T07:28:39;19.50;99.90
41838;DHT22;27511;52.042;5.178;2023-08-01T07:31:05;19.40;99.90
41838;DHT22;27511;52.042;5.178;2023-08-01T07:33:32;19.50;99.90
41838;DHT22;27511;52.042;5.178;2023-08-01T07:36:03;19.70;99.90
41838;DHT22;27511;52.042;5.178;2023-08-01T07:38:29;19.60;99.90
41838;DHT22;27511;52.042;5.178;2023-08-01T07:40:57;19.50;99.90
41838;DHT22;27511;52.042;5.178;2023-08-01T07:43:22;19.50;99.90
41838;DHT22;27511;52.042;5.178;2023-08-01T07:45:48;19.30;99.90
41838;DHT22;27511;52.042;5.178;2023-08-01T07:48:15;19.50;99.90
41838;DHT22;27511;52.042;5.178;2023-08-01T07:50:41;19.50;99.90
41838;DHT22;27511;52.042;5.178;2023-08-01T07:53:06;19.80;99.90
41838;DHT22;27511;52.042;5.178;2023-08-01T07:55:35;19.90;99.90
41838;DHT22;27511;52.042;5.178;2023-08-01T07:58:00;19.80;99.90
41838;DHT22;27511;52.042;5.178;2023-08-01T08:00:26;19.70;99.90
41838;DHT22;27511;52.042;5.178;2023-08-01T08:02:52;19.70;99.90
41838;DHT22;27511;52.042;5.178;2023-08-01T08:05:18;19.60;99.90
41838;DHT22;27511;52.042;5.178;2023-08-01T08:07:44;19.80;99.90
41838;DHT22;27511;52.042;5.178;2023-08-01T08:10:09;19.70;99.90
41838;DHT22;27511;52.042;5.178;2023-08-01T08:12:35;19.60;99.90
41838;DHT22;27511;52.042;5.178;2023-08-01T08:15:00;19.50;99.90
41838;DHT22;27511;52.042;5.178;2023-08-01T08:17:26;19.30;99.90
41838;DHT22;27511;52.042;5.178;2023-08-01T08:19:51;19.40;99.90
41838;DHT22;27511;52.042;5.178;2023-08-01T08:22:16;19.30;99.90
41838;DHT22;27511;52.042;5.178;2023-08-01T08:24:42;19.30;99.90
41838;DHT22;27511;52.042;5.178;2023-08-01T08:27:11;19.40;99.90
41838;DHT22;27511;52.042;5.178;2023-08-01T08:29:38;19.30;99.90
41838;DHT22;27511;52.042;5.178;2023-08-01T08:32:04;19.40;99.90
41838;DHT22;27511;52.042;5.178;2023-08-01T08:34:30;19.50;99.90
41838;DHT22;27511;52.042;5.178;2023-08-01T08:36:55;19.50;99.90
41838;DHT22;27511;52.042;5.178;2023-08-01T08:39:21;19.50;99.90
41838;DHT22;27511;52.042;5.178;2023-08-01T08:41:47;19.50;99.90
41838;DHT22;27511;52.042;5.178;2023-08-01T08:44:16;19.40;99.90
41838;DHT22;27511;52.042;5.178;2023-08-01T08:46:42;19.50;99.90
41838;DHT22;27511;52.042;5.178;2023-08-01T08:49:11;19.60;99.90
41838;DHT22;27511;52.042;5.178;2023-08-01T08:51:37;19.80;99.90
41838;DHT22;27511;52.042;5.178;2023-08-01T08:54:03;19.70;99.90
41838;DHT22;27511;52.042;5.178;2023-08-01T08:56:29;20.00;99.90
41838;DHT22;27511;52.042;5.178;2023-08-01T08:58:55;19.70;99.90
41838;DHT22;27511;52.042;5.178;2023-08-01T09:01:21;19.90;99.90
41838;DHT22;27511;52.042;5.178;2023-08-01T09:03:46;19.80;99.90
41838;DHT22;27511;52.042;5.178;2023-08-01T09:06:14;19.90;99.90
41838;DHT22;27511;52.042;5.178;2023-08-01T09:08:40;19.80;99.90
41838;DHT22;27511;52.042;5.178;2023-08-01T09:11:10;19.70;99.90
41838;DHT22;27511;52.042;5.178;2023-08-01T09:13:35;19.90;99.90
41838;DHT22;27511;52.042;5.178;2023-08-01T09:16:01;19.60;99.90
41838;DHT22;27511;52.042;5.178;2023-08-01T09:18:27;19.60;99.90
41838;DHT22;27511;52.042;5.178;2023-08-01T09:20:53;19.70;99.90
41838;DHT22;27511;52.042;5.178;2023-08-01T09:23:18;19.70;99.90
41838;DHT22;27511;52.042;5.178;2023-08-01T09:25:44;20.10;99.90
41838;DHT22;27511;52.042;5.178;2023-08-01T09:30:48;19.70;99.90
41838;DHT22;27511;52.042;5.178;2023-08-01T09:33:16;19.70;99.90
41838;DHT22;27511;52.042;5.178;2023-08-01T09:35:42;19.70;99.90
41838;DHT22;27511;52.042;5.178;2023-08-01T09:38:10;19.80;99.90
41838;DHT22;27511;52.042;5.178;2023-08-01T09:40:39;19.80;99.90
41838;DHT22;27511;52.042;5.178;2023-08-01T09:43:04;19.80;99.90
41838;DHT22;27511;52.042;5.178;2023-08-01T09:45:30;19.90;99.90
41838;DHT22;27511;52.042;5.178;2023-08-01T09:47:56;19.90;99.90
41838;DHT22;27511;52.042;5.178;2023-08-01T09:50:22;20.10;99.90
41838;DHT22;27511;52.042;5.178;2023-08-01T09:52:47;20.40;99.90
41838;DHT22;27511;52.042;5.178;2023-08-01T09:55:21;20.30;99.90
41838;DHT22;27511;52.042;5.178;2023-08-01T09:57:50;20.20;99.90
41838;DHT22;27511;52.042;5.178;2023-08-01T10:00:15;20.10;99.90
41838;DHT22;27511;52.042;5.178;2023-08-01T10:02:41;20.00;99.90
41838;DHT22;27511;52.042;5.178;2023-08-01T10:05:08;19.90;99.90
41838;DHT22;27511;52.042;5.178;2023-08-01T10:07:34;19.90;99.90
41838;DHT22;27511;52.042;5.178;2023-08-01T10:10:01;19.90;99.90
41838;DHT22;27511;52.042;5.178;2023-08-01T10:12:26;19.90;99.90
41838;DHT22;27511;52.042;5.178;2023-08-01T10:14:53;20.00;99.90
41838;DHT22;27511;52.042;5.178;2023-08-01T10:17:19;20.10;99.90
41838;DHT22;27511;52.042;5.178;2023-08-01T10:19:45;20.30;99.90
41838;DHT22;27511;52.042;5.178;2023-08-01T10:22:11;20.30;99.90
41838;DHT22;27511;52.042;5.178;2023-08-01T10:24:37;20.40;99.90
41838;DHT22;27511;52.042;5.178;2023-08-01T10:27:15;20.60;99.90
41838;DHT22;27511;52.042;5.178;2023-08-01T10:29:44;20.70;99.90
41838;DHT22;27511;52.042;5.178;2023-08-01T10:32:10;21.00;99.90
41838;DHT22;27511;52.042;5.178;2023-08-01T10:34:35;20.80;99.90
41838;DHT22;27511;52.042;5.178;2023-08-01T10:37:01;20.80;99.90
41838;DHT22;27511;52.042;5.178;2023-08-01T10:39:27;20.60;99.90
41838;DHT22;27511;52.042;5.178;2023-08-01T10:41:59;20.50;99.90
41838;DHT22;27511;52.042;5.178;2023-08-01T10:44:25;20.80;99.90
41838;DHT22;27511;52.042;5.178;2023-08-01T10:46:58;20.60;99.90
41838;DHT22;27511;52.042;5.178;2023-08-01T10:51:59;20.80;99.90
41838;DHT22;27511;52.042;5.178;2023-08-01T10:54:25;20.80;99.90
41838;DHT22;27511;52.042;5.178;2023-08-01T10:56:51;20.80;99.90
41838;DHT22;27511;52.042;5.178;2023-08-01T10:59:17;20.70;99.90
41838;DHT22;27511;52.042;5.178;2023-08-01T11:01:47;20.40;99.90
41838;DHT22;27511;52.042;5.178;2023-08-01T11:04:14;20.50;99.90
41838;DHT22;27511;52.042;5.178;2023-08-01T11:06:43;20.40;99.90
41838;DHT22;27511;52.042;5.178;2023-08-01T11:09:19;20.20;99.90
41838;DHT22;27511;52.042;5.178;2023-08-01T11:11:45;20.40;99.90
41838;DHT22;27511;52.042;5.178;2023-08-01T11:14:11;20.40;99.90
41838;DHT22;27511;52.042;5.178;2023-08-01T11:16:37;20.70;99.90
41838;DHT22;27511;52.042;5.178;2023-08-01T11:19:02;20.90;99.90
41838;DHT22;27511;52.042;5.178;2023-08-01T11:21:28;20.90;99.90
41838;DHT22;27511;52.042;5.178;2023-08-01T11:23:53;20.60;99.90
41838;DHT22;27511;52.042;5.178;2023-08-01T11:26:19;20.60;99.90
41838;DHT22;27511;52.042;5.178;2023-08-01T11:28:44;20.60;99.90
41838;DHT22;27511;52.042;5.178;2023-08-01T11:31:13;20.80;99.90
41838;DHT22;27511;52.042;5.178;2023-08-01T11:33:39;20.70;99.90
41838;DHT22;27511;52.042;5.178;2023-08-01T11:36:04;20.50;99.90
41838;DHT22;27511;52.042;5.178;2023-08-01T11:38:31;20.60;99.90
41838;DHT22;27511;52.042;5.178;2023-08-01T11:40:58;20.60;99.90
41838;DHT22;27511;52.042;5.178;2023-08-01T11:43:24;20.50;99.90
41838;DHT22;27511;52.042;5.178;2023-08-01T11:45:53;20.70;99.90
41838;DHT22;27511;52.042;5.178;2023-08-01T11:48:24;20.80;99.90
41838;DHT22;27511;52.042;5.178;2023-08-01T11:50:57;20.90;99.90
41838;DHT22;27511;52.042;5.178;2023-08-01T11:53:23;20.90;99.90
41838;DHT22;27511;52.042;5.178;2023-08-01T11:55:49;20.70;99.90
41838;DHT22;27511;52.042;5.178;2023-08-01T11:58:27;20.80;99.90
41838;DHT22;27511;52.042;5.178;2023-08-01T12:01:00;21.00;99.90
41838;DHT22;27511;52.042;5.178;2023-08-01T12:03:26;20.80;99.90
41838;DHT22;27511;52.042;5.178;2023-08-01T12:05:52;20.80;99.90
41838;DHT22;27511;52.042;5.178;2023-08-01T12:08:17;21.00;99.90
41838;DHT22;27511;52.042;5.178;2023-08-01T12:10:43;21.30;99.90
41838;DHT22;27511;52.042;5.178;2023-08-01T12:13:19;21.30;99.90
41838;DHT22;27511;52.042;5.178;2023-08-01T12:15:46;21.10;99.90
41838;DHT22;27511;52.042;5.178;2023-08-01T12:18:19;21.20;99.90
41838;DHT22;27511;52.042;5.178;2023-08-01T12:20:44;21.20;99.90
41838;DHT22;27511;52.042;5.178;2023-08-01T12:23:10;21.20;99.90
41838;DHT22;27511;52.042;5.178;2023-08-01T12:25:35;21.50;99.90
41838;DHT22;27511;52.042;5.178;2023-08-01T12:28:00;21.30;99.90
41838;DHT22;27511;52.042;5.178;2023-08-01T12:30:26;21.20;99.90
41838;DHT22;27511;52.042;5.178;2023-08-01T12:32:51;21.20;99.90
41838;DHT22;27511;52.042;5.178;2023-08-01T12:35:18;20.90;99.90
41838;DHT22;27511;52.042;5.178;2023-08-01T12:37:44;21.00;99.90
41838;DHT22;27511;52.042;5.178;2023-08-01T12:40:09;21.20;99.90
41838;DHT22;27511;52.042;5.178;2023-08-01T12:42:35;21.20;99.90
41838;DHT22;27511;52.042;5.178;2023-08-01T12:45:00;21.30;99.90
41838;DHT22;27511;52.042;5.178;2023-08-01T12:47:26;21.60;99.90
41838;DHT22;27511;52.042;5.178;2023-08-01T12:49:51;21.80;99.90
41838;DHT22;27511;52.042;5.178;2023-08-01T12:52:24;21.90;99.90
41838;DHT22;27511;52.042;5.178;2023-08-01T12:54:52;21.70;99.90
41838;DHT22;27511;52.042;5.178;2023-08-01T12:57:17;21.70;99.90
41838;DHT22;27511;52.042;5.178;2023-08-01T12:59:43;22.10;99.90
41838;DHT22;27511;52.042;5.178;2023-08-01T13:02:08;21.80;99.90
41838;DHT22;27511;52.042;5.178;2023-08-01T13:04:34;21.40;99.90
41838;DHT22;27511;52.042;5.178;2023-08-01T13:07:01;21.20;99.90
41838;DHT22;27511;52.042;5.178;2023-08-01T13:09:27;21.30;99.90
41838;DHT22;27511;52.042;5.178;2023-08-01T13:11:52;21.30;99.90
41838;DHT22;27511;52.042;5.178;2023-08-01T13:14:18;21.80;99.90
41838;DHT22;27511;52.042;5.178;2023-08-01T13:16:44;21.90;99.90
41838;DHT22;27511;52.042;5.178;2023-08-01T13:19:09;22.10;99.90
41838;DHT22;27511;52.042;5.178;2023-08-01T13:21:35;22.20;99.90
41838;DHT22;27511;52.042;5.178;2023-08-01T13:24:00;22.20;99.90
41838;DHT22;27511;52.042;5.178;2023-08-01T13:26:33;21.80;99.90
41838;DHT22;27511;52.042;5.178;2023-08-01T13:28:59;21.90;99.90
41838;DHT22;27511;52.042;5.178;2023-08-01T13:31:25;22.00;99.90
41838;DHT22;27511;52.042;5.178;2023-08-01T13:33:50;22.40;99.90
41838;DHT22;27511;52.042;5.178;2023-08-01T13:36:19;22.40;99.90
41838;DHT22;27511;52.042;5.178;2023-08-01T13:38:44;22.40;99.90
41838;DHT22;27511;52.042;5.178;2023-08-01T13:41:10;22.40;99.90
41838;DHT22;27511;52.042;5.178;2023-08-01T13:43:35;22.20;99.90
41838;DHT22;27511;52.042;5.178;2023-08-01T13:46:01;22.30;99.90
41838;DHT22;27511;52.042;5.178;2023-08-01T13:48:33;22.30;99.90
41838;DHT22;27511;52.042;5.178;2023-08-01T13:50:58;22.10;99.90
41838;DHT22;27511;52.042;5.178;2023-08-01T13:53:24;22.10;99.90
41838;DHT22;27511;52.042;5.178;2023-08-01T13:55:49;22.10;99.90
41838;DHT22;27511;52.042;5.178;2023-08-01T13:58:15;21.80;99.90
41838;DHT22;27511;52.042;5.178;2023-08-01T14:00:40;21.80;99.90
41838;DHT22;27511;52.042;5.178;2023-08-01T14:03:06;21.60;99.90
41838;DHT22;27511;52.042;5.178;2023-08-01T14:05:31;21.90;99.90
41838;DHT22;27511;52.042;5.178;2023-08-01T14:07:57;21.80;99.90
41838;DHT22;27511;52.042;5.178;2023-08-01T14:10:22;21.60;99.90
41838;DHT22;27511;52.042;5.178;2023-08-01T14:12:48;21.90;99.90
41838;DHT22;27511;52.042;5.178;2023-08-01T14:15:13;21.60;99.90
41838;DHT22;27511;52.042;5.178;2023-08-01T14:17:39;21.80;99.90
41838;DHT22;27511;52.042;5.178;2023-08-01T14:20:05;21.80;99.90
41838;DHT22;27511;52.042;5.178;2023-08-01T14:22:30;22.00;99.90
41838;DHT22;27511;52.042;5.178;2023-08-01T14:24:56;21.90;99.90
41838;DHT22;27511;52.042;5.178;2023-08-01T14:27:21;21.70;99.90
41838;DHT22;27511;52.042;5.178;2023-08-01T14:29:47;21.70;99.90
41838;DHT22;27511;52.042;5.178;2023-08-01T14:32:13;21.80;99.90
41838;DHT22;27511;52.042;5.178;2023-08-01T14:34:38;22.00;99.90
41838;DHT22;27511;52.042;5.178;2023-08-01T14:37:04;22.10;99.90
41838;DHT22;27511;52.042;5.178;2023-08-01T14:39:29;22.40;99.90
41838;DHT22;27511;52.042;5.178;2023-08-01T14:41:55;22.30;99.90
41838;DHT22;27511;52.042;5.178;2023-08-01T14:44:20;22.30;99.90
41838;DHT22;27511;52.042;5.178;2023-08-01T14:46:46;22.40;99.90
41838;DHT22;27511;52.042;5.178;2023-08-01T14:49:12;22.40;99.90
41838;DHT22;27511;52.042;5.178;2023-08-01T14:51:37;22.50;99.90
41838;DHT22;27511;52.042;5.178;2023-08-01T14:54:03;22.30;99.90
41838;DHT22;27511;52.042;5.178;2023-08-01T14:56:31;22.10;99.90
41838;DHT22;27511;52.042;5.178;2023-08-01T14:58:56;22.20;99.90
41838;DHT22;27511;52.042;5.178;2023-08-01T15:01:23;22.30;99.90
41838;DHT22;27511;52.042;5.178;2023-08-01T15:03:48;22.20;99.90
41838;DHT22;27511;52.042;5.178;2023-08-01T15:06:14;22.30;99.90
41838;DHT22;27511;52.042;5.178;2023-08-01T15:08:40;22.50;99.90
41838;DHT22;27511;52.042;5.178;2023-08-01T15:11:06;22.30;99.90
41838;DHT22;27511;52.042;5.178;2023-08-01T15:13:32;22.20;99.90
41838;DHT22;27511;52.042;5.178;2023-08-01T15:15:58;21.90;99.90
41838;DHT22;27511;52.042;5.178;2023-08-01T15:18:23;21.90;99.90
41838;DHT22;27511;52.042;5.178;2023-08-01T15:20:49;22.00;99.90
41838;DHT22;27511;52.042;5.178;2023-08-01T15:23:14;21.90;99.90
41838;DHT22;27511;52.042;5.178;2023-08-01T15:25:39;21.70;99.90
41838;DHT22;27511;52.042;5.178;2023-08-01T15:28:05;21.00;99.90